Time;durP1;ratioP1;P1;durP2;ratioP2;P2;SDS_P1;SDS_P2;PMS_P1;PMS_P2;Temp;Humidity;BMP_temperature;BMP_pressure;BME280_temperature;BME280_humidity;BME280_pressure;Samples;Min_cycle;Max_cycle;Signal;HPM_P1;HPM_P2
2023/11/14 00:00:44;;;;;;;4.50;3.00;;;;;;;;;;4970228;28;20063;-58
2023/11/14 00:03:10;;;;;;;3.92;3.00;;;;;;;;;;4969651;28;20042;-58
2023/11/14 00:05:36;;;;;;;4.45;2.92;;;;;;;;;;4975623;28;20129;-58
2023/11/14 00:08:02;;;;;;;4.47;2.90;;;;;;;;;;4975631;28;20038;-58
2023/11/14 00:10:28;;;;;;;4.28;3.13;;;;;;;;;;4981864;28;20742;-58
2023/11/14 00:12:53;;;;;;;4.97;3.45;;;;;;;;;;4978496;28;20041;-58
2023/11/14 00:15:19;;;;;;;4.97;3.40;;;;;;;;;;4981036;28;20053;-58
2023/11/14 00:17:45;;;;;;;4.93;3.05;;;;;;;;;;4974149;28;20141;-58
2023/11/14 00:20:10;;;;;;;6.28;3.40;;;;;;;;;;4983425;28;20507;-58
2023/11/14 00:25:20;;;;;;;5.07;3.08;;;;;;;;;;4966154;28;20041;-58
2023/11/14 00:27:45;;;;;;;4.03;2.95;;;;;;;;;;4965212;28;20027;-59
2023/11/14 00:30:10;;;;;;;4.33;3.03;;;;;;;;;;4964981;28;20136;-58
2023/11/14 00:32:36;;;;;;;4.80;3.28;;;;;;;;;;4957372;28;20853;-58
2023/11/14 00:35:01;;;;;;;5.83;3.37;;;;;;;;;;4981002;28;20523;-59
2023/11/14 00:37:28;;;;;;;4.85;3.05;;;;;;;;;;4970872;28;20364;-59
2023/11/14 00:39:54;;;;;;;5.45;3.35;;;;;;;;;;4976201;28;20049;-59
2023/11/14 00:42:19;;;;;;;5.30;3.10;;;;;;;;;;4971237;28;20046;-58
2023/11/14 00:44:44;;;;;;;4.90;3.28;;;;;;;;;;4976297;28;20031;-58
2023/11/14 00:47:10;;;;;;;4.47;2.95;;;;;;;;;;4974422;28;20065;-60
2023/11/14 00:49:35;;;;;;;4.57;3.13;;;;;;;;;;4976622;28;20023;-59
2023/11/14 00:52:00;;;;;;;4.55;3.03;;;;;;;;;;4973220;28;20110;-59
2023/11/14 00:54:26;;;;;;;4.65;3.10;;;;;;;;;;4973882;28;20784;-59
2023/11/14 00:56:51;;;;;;;4.57;2.97;;;;;;;;;;4959346;28;20487;-59
2023/11/14 00:59:16;;;;;;;4.80;3.00;;;;;;;;;;4961330;28;20042;-58
2023/11/14 01:01:42;;;;;;;4.55;3.13;;;;;;;;;;4975285;28;20278;-58
2023/11/14 01:04:10;;;;;;;4.88;3.17;;;;;;;;;;4964726;28;20125;-58
2023/11/14 01:06:35;;;;;;;5.63;3.22;;;;;;;;;;4979111;28;20034;-58
2023/11/14 01:09:00;;;;;;;5.50;3.15;;;;;;;;;;4978735;28;20413;-59
2023/11/14 01:11:26;;;;;;;4.50;3.10;;;;;;;;;;4967230;28;20042;-56
2023/11/14 01:13:51;;;;;;;5.05;3.33;;;;;;;;;;4982308;28;20539;-57
2023/11/14 01:16:16;;;;;;;5.20;3.30;;;;;;;;;;4981726;28;20504;-57
2023/11/14 01:18:42;;;;;;;5.40;3.30;;;;;;;;;;4978865;28;20038;-58
2023/11/14 01:21:07;;;;;;;4.95;2.95;;;;;;;;;;4974058;28;20436;-57
2023/11/14 01:23:33;;;;;;;5.75;3.63;;;;;;;;;;4947399;28;20069;-58
2023/11/14 01:25:58;;;;;;;4.18;3.10;;;;;;;;;;4963658;28;20042;-58
2023/11/14 01:28:23;;;;;;;4.60;3.30;;;;;;;;;;4983059;28;20049;-58
2023/11/14 01:30:49;;;;;;;4.85;3.15;;;;;;;;;;4973703;28;20054;-58
2023/11/14 01:33:14;;;;;;;5.22;3.25;;;;;;;;;;4970704;28;20052;-59
2023/11/14 01:35:39;;;;;;;4.20;3.10;;;;;;;;;;4978803;28;20031;-56
2023/11/14 01:38:04;;;;;;;4.18;3.08;;;;;;;;;;4965633;28;20517;-57
2023/11/14 01:40:30;;;;;;;4.53;3.40;;;;;;;;;;4972784;28;20061;-59
2023/11/14 01:43:02;;;;;;;4.72;3.17;;;;;;;;;;4964889;28;20310;-59
2023/11/14 01:45:27;;;;;;;4.65;3.08;;;;;;;;;;4983785;28;20050;-59
2023/11/14 01:47:53;;;;;;;4.47;3.10;;;;;;;;;;4983246;28;20015;-59
2023/11/14 01:50:19;;;;;;;4.63;3.05;;;;;;;;;;4972465;28;20075;-59
2023/11/14 01:52:44;;;;;;;5.32;3.50;;;;;;;;;;4977499;28;20030;-58
2023/11/14 01:55:09;;;;;;;4.07;3.05;;;;;;;;;;4986583;28;20029;-60
2023/11/14 01:57:35;;;;;;;4.90;3.60;;;;;;;;;;4965691;28;20085;-59
2023/11/14 02:00:00;;;;;;;5.63;3.45;;;;;;;;;;4976727;28;20556;-58
2023/11/14 02:02:26;;;;;;;5.05;3.58;;;;;;;;;;4957882;28;20112;-59
2023/11/14 02:04:51;;;;;;;5.75;3.60;;;;;;;;;;4986717;28;20018;-58
2023/11/14 02:07:16;;;;;;;5.35;3.45;;;;;;;;;;4979337;28;20038;-58
2023/11/14 02:09:42;;;;;;;5.05;3.22;;;;;;;;;;4983283;28;20467;-59
2023/11/14 02:12:07;;;;;;;4.43;3.20;;;;;;;;;;4981370;28;20481;-58
2023/11/14 02:14:32;;;;;;;5.57;3.42;;;;;;;;;;4975932;28;20266;-58
2023/11/14 02:16:58;;;;;;;5.00;3.50;;;;;;;;;;4975648;28;20448;-59
2023/11/14 02:19:23;;;;;;;4.68;3.33;;;;;;;;;;4975479;28;20061;-58
2023/11/14 02:21:48;;;;;;;5.35;3.42;;;;;;;;;;4966151;28;20408;-59
2023/11/14 02:24:17;;;;;;;5.72;3.30;;;;;;;;;;4947228;28;20085;-59
2023/11/14 02:26:44;;;;;;;5.75;3.40;;;;;;;;;;4961382;28;20122;-56
2023/11/14 02:29:13;;;;;;;5.05;3.40;;;;;;;;;;4974201;28;20034;-57
2023/11/14 02:31:38;;;;;;;5.07;3.80;;;;;;;;;;4969666;28;20479;-57
2023/11/14 02:34:04;;;;;;;3.70;3.00;;;;;;;;;;4976885;28;20134;-58
2023/11/14 02:36:30;;;;;;;4.93;3.42;;;;;;;;;;4965927;28;20282;-58
2023/11/14 02:38:55;;;;;;;4.50;3.10;;;;;;;;;;4971037;28;20066;-57
2023/11/14 02:41:20;;;;;;;4.82;3.50;;;;;;;;;;4966305;28;20070;-58
2023/11/14 02:43:46;;;;;;;6.30;3.63;;;;;;;;;;4966146;28;20868;-58
2023/11/14 02:46:11;;;;;;;4.63;3.40;;;;;;;;;;4966707;28;20341;-58
2023/11/14 02:48:36;;;;;;;4.82;3.70;;;;;;;;;;4971862;28;20042;-58
2023/11/14 02:51:02;;;;;;;4.87;3.30;;;;;;;;;;4966313;28;20050;-59
2023/11/14 02:53:28;;;;;;;4.30;3.25;;;;;;;;;;4974219;28;20273;-58
2023/11/14 02:55:53;;;;;;;4.15;3.20;;;;;;;;;;4968483;28;20045;-59
2023/11/14 02:58:19;;;;;;;4.60;3.40;;;;;;;;;;4965067;28;20034;-58
2023/11/14 03:00:51;;;;;;;4.75;3.28;;;;;;;;;;4966094;28;20468;-58
2023/11/14 03:03:16;;;;;;;4.35;3.45;;;;;;;;;;4979634;28;20065;-57
2023/11/14 03:05:42;;;;;;;5.82;3.58;;;;;;;;;;4977291;28;20034;-57
2023/11/14 03:08:07;;;;;;;5.22;3.42;;;;;;;;;;4967797;28;20046;-58
2023/11/14 03:10:33;;;;;;;4.57;3.40;;;;;;;;;;4984729;28;20038;-58
2023/11/14 03:12:58;;;;;;;4.78;3.15;;;;;;;;;;4980789;28;20109;-57
2023/11/14 03:15:24;;;;;;;4.80;3.13;;;;;;;;;;4968524;28;20038;-58
2023/11/14 03:17:49;;;;;;;4.40;3.58;;;;;;;;;;4977184;28;20038;-57
2023/11/14 03:20:15;;;;;;;5.05;3.58;;;;;;;;;;4976357;28;20038;-59
2023/11/14 03:22:40;;;;;;;4.13;3.03;;;;;;;;;;4960973;28;20047;-58
2023/11/14 03:25:06;;;;;;;5.05;3.33;;;;;;;;;;4946562;28;20031;-58
2023/11/14 03:27:31;;;;;;;4.72;3.20;;;;;;;;;;4960855;28;20081;-57
2023/11/14 03:29:56;;;;;;;5.25;3.53;;;;;;;;;;4985355;28;20113;-58
2023/11/14 03:32:22;;;;;;;4.88;3.38;;;;;;;;;;4984779;28;20089;-58
2023/11/14 03:34:48;;;;;;;4.55;3.58;;;;;;;;;;4981944;28;20508;-58
2023/11/14 03:37:13;;;;;;;5.67;3.83;;;;;;;;;;4978583;28;20038;-58
2023/11/14 03:39:42;;;;;;;5.00;3.15;;;;;;;;;;4964780;28;20345;-58
2023/11/14 03:42:07;;;;;;;4.45;3.30;;;;;;;;;;4965633;28;20047;-57
2023/11/14 03:44:33;;;;;;;4.88;3.45;;;;;;;;;;4963709;28;20093;-58
2023/11/14 03:46:58;;;;;;;4.47;3.08;;;;;;;;;;4974803;28;20417;-57
2023/11/14 03:49:23;;;;;;;4.33;3.30;;;;;;;;;;4959045;28;20047;-57
2023/11/14 03:51:48;;;;;;;4.55;3.25;;;;;;;;;;4951000;28;20668;-58
2023/11/14 03:54:14;;;;;;;5.00;3.15;;;;;;;;;;4968711;28;20058;-57
2023/11/14 03:56:39;;;;;;;3.95;3.20;;;;;;;;;;4978721;28;20034;-57
2023/11/14 03:59:04;;;;;;;4.55;3.13;;;;;;;;;;4980421;28;20444;-58
2023/11/14 04:01:30;;;;;;;4.85;3.25;;;;;;;;;;4971445;28;20739;-57
2023/11/14 04:03:55;;;;;;;4.30;3.08;;;;;;;;;;4971004;28;20569;-58
2023/11/14 04:06:21;;;;;;;5.72;3.53;;;;;;;;;;4981160;28;20061;-59
2023/11/14 04:08:46;;;;;;;4.55;3.10;;;;;;;;;;4971568;28;20053;-59
2023/11/14 04:11:13;;;;;;;4.45;3.00;;;;;;;;;;4974224;28;20088;-58
2023/11/14 04:13:38;;;;;;;4.95;3.60;;;;;;;;;;4964966;28;20200;-58
2023/11/14 04:16:04;;;;;;;3.92;3.20;;;;;;;;;;4966935;28;20532;-57
2023/11/14 04:18:29;;;;;;;4.57;3.42;;;;;;;;;;4965050;28;20045;-57
2023/11/14 04:20:55;;;;;;;4.35;3.40;;;;;;;;;;4963574;28;20421;-58
2023/11/14 04:23:20;;;;;;;5.50;3.60;;;;;;;;;;4965035;28;20050;-58
2023/11/14 04:25:45;;;;;;;4.60;3.55;;;;;;;;;;4962562;28;20038;-57
2023/11/14 04:28:11;;;;;;;4.65;3.17;;;;;;;;;;4967611;28;20071;-58
2023/11/14 04:30:36;;;;;;;4.28;3.22;;;;;;;;;;4983902;28;20026;-57
2023/11/14 04:33:01;;;;;;;4.95;3.38;;;;;;;;;;4979505;28;20038;-57
2023/11/14 04:35:27;;;;;;;4.40;2.95;;;;;;;;;;4968119;28;20492;-58
2023/11/14 04:37:55;;;;;;;5.57;3.58;;;;;;;;;;4964882;28;20045;-59
2023/11/14 04:40:21;;;;;;;3.63;2.88;;;;;;;;;;4963301;28;20096;-57
2023/11/14 04:42:46;;;;;;;5.43;2.92;;;;;;;;;;4968877;28;20500;-59
2023/11/14 04:45:11;;;;;;;4.87;3.20;;;;;;;;;;4973164;28;20698;-57
2023/11/14 04:47:37;;;;;;;5.68;3.20;;;;;;;;;;4988706;28;20321;-56
2023/11/14 04:50:02;;;;;;;4.20;3.03;;;;;;;;;;4963393;28;20034;-58
2023/11/14 04:52:27;;;;;;;4.65;2.90;;;;;;;;;;4974630;28;20378;-58
2023/11/14 04:54:53;;;;;;;3.92;2.85;;;;;;;;;;4974099;28;20097;-58
2023/11/14 04:57:18;;;;;;;5.07;3.20;;;;;;;;;;4967059;28;20035;-58
2023/11/14 04:59:43;;;;;;;4.97;3.25;;;;;;;;;;4964543;28;20042;-57
2023/11/14 05:02:10;;;;;;;4.50;3.30;;;;;;;;;;4964239;28;20129;-58
2023/11/14 05:04:35;;;;;;;5.07;3.20;;;;;;;;;;4962989;28;20811;-58
2023/11/14 05:07:02;;;;;;;4.15;3.15;;;;;;;;;;4945599;28;20039;-58
2023/11/14 05:09:28;;;;;;;4.25;3.10;;;;;;;;;;4944990;28;20043;-58
2023/11/14 05:11:54;;;;;;;4.82;3.28;;;;;;;;;;4947813;28;20042;-58
2023/11/14 05:14:19;;;;;;;3.95;2.80;;;;;;;;;;4970695;28;20034;-57
2023/11/14 05:16:44;;;;;;;3.35;2.88;;;;;;;;;;4981646;28;20054;-58
2023/11/14 05:19:09;;;;;;;5.07;3.45;;;;;;;;;;4971466;28;20428;-58
2023/11/14 05:21:38;;;;;;;4.53;3.15;;;;;;;;;;4976786;28;20058;-58
2023/11/14 05:24:04;;;;;;;4.75;3.33;;;;;;;;;;4974158;28;20054;-58
2023/11/14 05:26:29;;;;;;;4.38;3.28;;;;;;;;;;4976785;28;20042;-58
2023/11/14 05:28:54;;;;;;;4.40;3.08;;;;;;;;;;4970366;28;20047;-58
2023/11/14 05:31:19;;;;;;;4.87;3.40;;;;;;;;;;4978835;28;20038;-57
2023/11/14 05:33:45;;;;;;;4.23;3.10;;;;;;;;;;4980029;28;20286;-58
2023/11/14 05:36:10;;;;;;;4.17;3.00;;;;;;;;;;4985465;28;20733;-58
2023/11/14 05:38:35;;;;;;;4.18;2.92;;;;;;;;;;4967665;28;20364;-59
2023/11/14 05:41:02;;;;;;;4.53;3.10;;;;;;;;;;4966061;28;20450;-57
2023/11/14 05:43:28;;;;;;;5.38;3.47;;;;;;;;;;4979566;28;20045;-58
2023/11/14 05:45:54;;;;;;;4.45;3.08;;;;;;;;;;4969181;28;20526;-57
2023/11/14 05:48:19;;;;;;;4.05;2.92;;;;;;;;;;4971358;28;20038;-57
2023/11/14 05:50:45;;;;;;;3.85;2.90;;;;;;;;;;4965693;28;20035;-57
2023/11/14 05:53:10;;;;;;;4.68;3.05;;;;;;;;;;4975238;28;20039;-59
2023/11/14 05:55:36;;;;;;;4.70;3.00;;;;;;;;;;4971957;28;20117;-58
2023/11/14 05:58:01;;;;;;;5.20;3.22;;;;;;;;;;4981716;28;20529;-57
2023/11/14 06:00:27;;;;;;;4.28;3.17;;;;;;;;;;4973004;28;20481;-58
2023/11/14 06:02:52;;;;;;;5.25;2.90;;;;;;;;;;4978264;28;20120;-57
2023/11/14 06:05:18;;;;;;;4.20;2.90;;;;;;;;;;4976956;28;20046;-57
2023/11/14 06:07:43;;;;;;;5.03;3.17;;;;;;;;;;4975385;28;20042;-58
2023/11/14 06:10:10;;;;;;;5.32;2.97;;;;;;;;;;4969929;28;20047;-54
2023/11/14 06:12:39;;;;;;;4.05;2.75;;;;;;;;;;4978911;28;20048;-55
2023/11/14 06:15:05;;;;;;;4.85;3.33;;;;;;;;;;4980140;28;20035;-56
2023/11/14 06:17:30;;;;;;;4.25;3.17;;;;;;;;;;4981324;28;20034;-56
2023/11/14 06:19:55;;;;;;;4.88;2.83;;;;;;;;;;4981214;28;20435;-57
2023/11/14 06:22:20;;;;;;;3.80;2.97;;;;;;;;;;4976992;28;20449;-57
2023/11/14 06:24:46;;;;;;;4.82;3.15;;;;;;;;;;4968563;28;20283;-55
2023/11/14 06:27:11;;;;;;;5.60;3.78;;;;;;;;;;4970110;28;20445;-57
2023/11/14 06:29:36;;;;;;;4.80;3.33;;;;;;;;;;4978864;28;20034;-57
2023/11/14 06:32:02;;;;;;;6.00;3.55;;;;;;;;;;4974895;28;20086;-57
2023/11/14 06:34:27;;;;;;;4.85;3.13;;;;;;;;;;4970534;28;20508;-58
2023/11/14 06:36:53;;;;;;;5.13;3.17;;;;;;;;;;4977224;28;20545;-58
2023/11/14 06:39:18;;;;;;;4.43;3.17;;;;;;;;;;4981706;28;20038;-57
2023/11/14 06:41:46;;;;;;;4.95;3.10;;;;;;;;;;4969294;28;20041;-57
2023/11/14 06:44:12;;;;;;;3.90;2.65;;;;;;;;;;4973316;28;20058;-56
2023/11/14 06:46:37;;;;;;;5.37;3.53;;;;;;;;;;4971259;28;20035;-57
2023/11/14 06:49:02;;;;;;;4.17;3.00;;;;;;;;;;4973523;28;20627;-59
2023/11/14 06:51:27;;;;;;;5.10;3.05;;;;;;;;;;4979561;28;20389;-56
2023/11/14 06:53:53;;;;;;;4.97;3.17;;;;;;;;;;4982618;28;20460;-55
2023/11/14 06:56:19;;;;;;;4.68;3.60;;;;;;;;;;4972740;28;20282;-57
2023/11/14 06:58:45;;;;;;;4.43;3.20;;;;;;;;;;4970760;28;20058;-57
2023/11/14 07:01:13;;;;;;;4.68;3.45;;;;;;;;;;4975312;28;20491;-58
2023/11/14 07:03:39;;;;;;;5.13;3.40;;;;;;;;;;4978228;28;20126;-56
2023/11/14 07:06:05;;;;;;;5.07;3.30;;;;;;;;;;4976915;28;20137;-57
2023/11/14 07:08:30;;;;;;;4.47;3.30;;;;;;;;;;4970331;28;20027;-55
2023/11/14 07:10:56;;;;;;;4.72;3.35;;;;;;;;;;4971111;28;20039;-58
2023/11/14 07:13:21;;;;;;;4.27;2.83;;;;;;;;;;4980017;28;20508;-57
2023/11/14 07:15:47;;;;;;;4.47;3.30;;;;;;;;;;4954702;28;20286;-56
2023/11/14 07:18:12;;;;;;;5.38;3.25;;;;;;;;;;4975388;28;20341;-57
2023/11/14 07:20:38;;;;;;;7.53;3.75;;;;;;;;;;4974578;28;20060;-58
2023/11/14 07:23:03;;;;;;;6.00;3.58;;;;;;;;;;4975581;28;20434;-57
2023/11/14 07:25:30;;;;;;;4.83;3.30;;;;;;;;;;4976703;28;20101;-56
2023/11/14 07:27:55;;;;;;;4.93;3.20;;;;;;;;;;4963179;28;20373;-57
2023/11/14 07:30:21;;;;;;;5.78;3.83;;;;;;;;;;4976309;28;20043;-56
2023/11/14 07:32:47;;;;;;;5.18;3.20;;;;;;;;;;4981365;28;20038;-56
2023/11/14 07:35:12;;;;;;;7.55;3.47;;;;;;;;;;4979476;28;20042;-56
2023/11/14 07:37:37;;;;;;;5.13;3.20;;;;;;;;;;4981397;28;20034;-57
2023/11/14 07:40:03;;;;;;;5.27;3.40;;;;;;;;;;4982354;28;20548;-56
2023/11/14 07:42:30;;;;;;;5.05;3.00;;;;;;;;;;4973322;28;20319;-55
2023/11/14 07:44:56;;;;;;;3.95;2.97;;;;;;;;;;4955589;28;20035;-54
2023/11/14 07:47:21;;;;;;;6.40;3.55;;;;;;;;;;4966934;28;20038;-55
2023/11/14 07:49:46;;;;;;;5.47;3.00;;;;;;;;;;4975884;28;20906;-56
2023/11/14 07:52:11;;;;;;;4.95;3.03;;;;;;;;;;4971548;28;20129;-56
2023/11/14 07:54:37;;;;;;;5.60;3.57;;;;;;;;;;4978459;28;20046;-55
2023/11/14 07:57:02;;;;;;;5.00;3.33;;;;;;;;;;4977547;28;20288;-55
2023/11/14 07:59:30;;;;;;;7.00;3.63;;;;;;;;;;4969378;28;20656;-58
2023/11/14 08:01:56;;;;;;;6.13;3.35;;;;;;;;;;4973664;28;20031;-57
2023/11/14 08:04:21;;;;;;;4.53;3.25;;;;;;;;;;4973397;28;20054;-55
2023/11/14 08:06:47;;;;;;;6.40;3.30;;;;;;;;;;4978042;28;20030;-58
2023/11/14 08:09:12;;;;;;;4.85;3.25;;;;;;;;;;4974077;28;20454;-59
2023/11/14 08:11:39;;;;;;;3.90;3.05;;;;;;;;;;4974971;28;20134;-57
2023/11/14 08:14:05;;;;;;;4.95;3.45;;;;;;;;;;4989734;28;20033;-58
2023/11/14 08:16:30;;;;;;;6.55;3.60;;;;;;;;;;4972443;28;20038;-59
2023/11/14 08:18:55;;;;;;;4.78;3.17;;;;;;;;;;4969570;28;20104;-58
2023/11/14 08:21:21;;;;;;;5.20;3.55;;;;;;;;;;4969076;28;20480;-58
2023/11/14 08:23:47;;;;;;;5.97;3.65;;;;;;;;;;4969666;28;20042;-59
2023/11/14 08:26:12;;;;;;;5.15;3.17;;;;;;;;;;4981807;28;20080;-58
2023/11/14 08:28:39;;;;;;;4.67;3.30;;;;;;;;;;4982812;28;20051;-57
2023/11/14 08:31:05;;;;;;;4.57;2.97;;;;;;;;;;4970708;28;21720;-58
2023/11/14 08:33:30;;;;;;;4.93;3.65;;;;;;;;;;4968486;28;20082;-59
2023/11/14 08:35:55;;;;;;;4.88;3.53;;;;;;;;;;4981492;28;20113;-59
2023/11/14 08:38:21;;;;;;;5.03;3.13;;;;;;;;;;4981285;28;20125;-58
2023/11/14 08:40:47;;;;;;;4.50;3.20;;;;;;;;;;4979857;28;20416;-59
2023/11/14 08:43:12;;;;;;;4.75;3.33;;;;;;;;;;4976923;28;20051;-57
2023/11/14 08:45:38;;;;;;;4.73;3.50;;;;;;;;;;4979297;28;20077;-57
2023/11/14 08:48:03;;;;;;;5.18;3.30;;;;;;;;;;4971568;28;20289;-57
2023/11/14 08:50:29;;;;;;;5.30;3.67;;;;;;;;;;4980890;28;20499;-57
2023/11/14 08:52:54;;;;;;;4.93;3.28;;;;;;;;;;4971525;28;20734;-57
2023/11/14 08:55:19;;;;;;;5.97;3.47;;;;;;;;;;4969712;28;20039;-57
2023/11/14 08:57:45;;;;;;;5.07;3.33;;;;;;;;;;4963293;28;20041;-58
2023/11/14 09:00:12;;;;;;;6.33;3.90;;;;;;;;;;4980529;28;20053;-59
2023/11/14 09:02:38;;;;;;;4.85;3.13;;;;;;;;;;4974822;28;20317;-58
2023/11/14 09:05:03;;;;;;;4.03;3.05;;;;;;;;;;4983603;28;20113;-58
2023/11/14 09:07:29;;;;;;;4.22;3.20;;;;;;;;;;4978303;28;20030;-58
2023/11/14 09:09:55;;;;;;;5.07;3.42;;;;;;;;;;4962334;28;20763;-57
2023/11/14 09:12:20;;;;;;;4.78;3.33;;;;;;;;;;4976254;28;20042;-57
2023/11/14 09:14:46;;;;;;;3.97;3.08;;;;;;;;;;4974633;28;20058;-58
2023/11/14 09:17:12;;;;;;;4.63;3.22;;;;;;;;;;4976640;28;20073;-59
2023/11/14 09:19:37;;;;;;;4.82;3.35;;;;;;;;;;4978831;28;20037;-57
2023/11/14 09:22:04;;;;;;;4.88;3.42;;;;;;;;;;4985090;28;20120;-58
2023/11/14 09:24:30;;;;;;;5.22;3.42;;;;;;;;;;4978685;28;20137;-56
2023/11/14 09:26:55;;;;;;;5.72;3.20;;;;;;;;;;4984568;28;20125;-58
2023/11/14 09:29:21;;;;;;;4.10;3.00;;;;;;;;;;4968255;28;20034;-56
2023/11/14 09:31:46;;;;;;;5.22;3.40;;;;;;;;;;4976487;28;20062;-56
2023/11/14 09:34:12;;;;;;;3.90;3.15;;;;;;;;;;4983581;28;20046;-56
2023/11/14 09:36:38;;;;;;;5.43;3.17;;;;;;;;;;4982448;28;20457;-56
2023/11/14 09:39:03;;;;;;;5.05;3.40;;;;;;;;;;4981190;28;20038;-57
2023/11/14 09:41:47;;;;;;;4.00;3.15;;;;;;;;;;4992162;28;20118;-57
2023/11/14 09:44:13;;;;;;;5.18;2.83;;;;;;;;;;4974760;28;20038;-58
2023/11/14 09:46:38;;;;;;;5.18;3.50;;;;;;;;;;4981803;28;20053;-57
2023/11/14 09:49:04;;;;;;;4.50;3.20;;;;;;;;;;4975269;28;20547;-57
2023/11/14 09:51:31;;;;;;;4.10;3.13;;;;;;;;;;4983835;28;20153;-57
2023/11/14 09:53:56;;;;;;;4.53;3.10;;;;;;;;;;4983609;28;20046;-58
2023/11/14 09:56:22;;;;;;;4.88;3.22;;;;;;;;;;4967779;28;20489;-56
2023/11/14 09:58:48;;;;;;;6.07;3.10;;;;;;;;;;4985679;28;21162;-58
2023/11/14 10:01:14;;;;;;;5.65;3.20;;;;;;;;;;4975716;28;20081;-56
2023/11/14 10:03:40;;;;;;;4.30;3.10;;;;;;;;;;4971279;28;20062;-56
2023/11/14 10:06:06;;;;;;;5.57;3.03;;;;;;;;;;4971567;28;20042;-57
2023/11/14 10:08:33;;;;;;;5.15;3.28;;;;;;;;;;4989055;28;20043;-57
2023/11/14 10:11:02;;;;;;;4.53;3.00;;;;;;;;;;4980807;28;20050;-60
2023/11/14 10:13:28;;;;;;;3.80;2.83;;;;;;;;;;4979103;28;20054;-59
2023/11/14 10:15:53;;;;;;;4.47;2.85;;;;;;;;;;4966764;28;20339;-59
2023/11/14 10:18:29;;;;;;;3.47;2.90;;;;;;;;;;4968978;28;20469;-59
2023/11/14 10:20:54;;;;;;;4.65;3.40;;;;;;;;;;4974774;28;20293;-61
2023/11/14 10:23:29;;;;;;;3.65;2.67;;;;;;;;;;4982215;28;20475;-59
2023/11/14 10:25:59;;;;;;;4.93;3.10;;;;;;;;;;4971025;28;20091;-59
2023/11/14 10:28:25;;;;;;;4.38;3.00;;;;;;;;;;4975279;28;20042;-59
2023/11/14 10:30:53;;;;;;;5.13;2.88;;;;;;;;;;4972637;28;20038;-59
2023/11/14 10:33:19;;;;;;;5.00;3.00;;;;;;;;;;4967132;28;20527;-58
2023/11/14 10:35:45;;;;;;;4.28;3.30;;;;;;;;;;4966889;28;20039;-57
2023/11/14 10:38:20;;;;;;;4.65;2.95;;;;;;;;;;4972910;28;20039;-58
2023/11/14 10:40:45;;;;;;;4.03;2.95;;;;;;;;;;4974808;28;20134;-58
2023/11/14 10:43:11;;;;;;;5.78;2.78;;;;;;;;;;4968401;28;20145;-59
2023/11/14 10:45:39;;;;;;;4.90;2.60;;;;;;;;;;4982823;28;20508;-58
2023/11/14 10:48:05;;;;;;;4.30;2.83;;;;;;;;;;4970031;28;20034;-58
2023/11/14 10:50:32;;;;;;;4.63;2.70;;;;;;;;;;4967060;28;20039;-59
2023/11/14 10:52:59;;;;;;;5.03;3.13;;;;;;;;;;4968638;28;20054;-58
2023/11/14 10:55:25;;;;;;;4.68;2.90;;;;;;;;;;4983914;28;20035;-58
2023/11/14 10:57:51;;;;;;;4.22;2.80;;;;;;;;;;4979030;28;20046;-59
2023/11/14 11:00:16;;;;;;;3.75;2.53;;;;;;;;;;4983790;28;20041;-59
2023/11/14 11:02:42;;;;;;;4.22;2.83;;;;;;;;;;4973323;28;20052;-60
2023/11/14 11:05:09;;;;;;;4.45;3.08;;;;;;;;;;4966443;28;20535;-58
2023/11/14 11:07:36;;;;;;;4.28;2.80;;;;;;;;;;4976005;28;20046;-58
2023/11/14 11:10:01;;;;;;;4.00;3.08;;;;;;;;;;4968675;28;20782;-58
2023/11/14 11:12:26;;;;;;;3.92;2.80;;;;;;;;;;4978687;28;20038;-58
2023/11/14 11:14:52;;;;;;;3.78;2.78;;;;;;;;;;4955793;28;20049;-58
2023/11/14 11:17:35;;;;;;;4.10;2.60;;;;;;;;;;4980212;28;20369;-58
2023/11/14 11:20:01;;;;;;;3.70;2.63;;;;;;;;;;4972779;28;20556;-58
2023/11/14 11:22:27;;;;;;;3.92;2.55;;;;;;;;;;4977328;28;20118;-59
2023/11/14 11:25:15;;;;;;;4.00;2.75;;;;;;;;;;4974084;28;20034;-58
2023/11/14 11:27:41;;;;;;;3.72;2.70;;;;;;;;;;4963516;28;20118;-58
2023/11/14 11:30:08;;;;;;;3.33;2.63;;;;;;;;;;4970338;28;20641;-58
2023/11/14 11:32:37;;;;;;;5.25;3.00;;;;;;;;;;4970959;28;20129;-59
2023/11/14 11:35:15;;;;;;;4.00;2.70;;;;;;;;;;4980272;28;20054;-58
2023/11/14 11:37:47;;;;;;;4.57;3.13;;;;;;;;;;4983932;28;20038;-57
2023/11/14 11:40:12;;;;;;;3.67;2.53;;;;;;;;;;4970380;28;20497;-57
2023/11/14 11:42:38;;;;;;;6.85;3.40;;;;;;;;;;4980240;28;20104;-58
2023/11/14 11:45:04;;;;;;;9.35;3.50;;;;;;;;;;4967687;28;20046;-59
2023/11/14 11:47:30;;;;;;;6.88;3.08;;;;;;;;;;4975374;28;20481;-59
2023/11/14 11:49:55;;;;;;;6.15;3.20;;;;;;;;;;4972377;28;20045;-58
2023/11/14 11:52:21;;;;;;;7.60;3.27;;;;;;;;;;4974879;28;20493;-58
2023/11/14 11:54:46;;;;;;;9.27;3.25;;;;;;;;;;4974903;28;20269;-58
2023/11/14 11:57:13;;;;;;;9.13;3.70;;;;;;;;;;4973168;28;20045;-59
2023/11/14 11:59:46;;;;;;;7.38;3.70;;;;;;;;;;4976336;28;20038;-59
2023/11/14 12:02:12;;;;;;;7.78;3.90;;;;;;;;;;4974594;28;20037;-58
2023/11/14 12:04:37;;;;;;;6.65;3.65;;;;;;;;;;4978502;28;20051;-58
2023/11/14 12:07:03;;;;;;;6.97;3.25;;;;;;;;;;4972895;28;20031;-59
2023/11/14 12:09:29;;;;;;;7.47;3.35;;;;;;;;;;4981043;28;20042;-58
2023/11/14 12:11:54;;;;;;;10.45;3.78;;;;;;;;;;4970363;28;20034;-58
2023/11/14 12:14:20;;;;;;;7.97;3.58;;;;;;;;;;4969721;28;20145;-58
2023/11/14 12:16:48;;;;;;;8.10;3.90;;;;;;;;;;4983383;28;20425;-59
2023/11/14 12:19:14;;;;;;;9.27;3.63;;;;;;;;;;4979346;28;20312;-58
2023/11/14 12:21:39;;;;;;;8.02;3.55;;;;;;;;;;4979650;28;20454;-58
2023/11/14 12:24:05;;;;;;;9.25;3.20;;;;;;;;;;4967069;28;20106;-59
2023/11/14 12:26:30;;;;;;;5.18;3.10;;;;;;;;;;4965549;28;20038;-56
2023/11/14 12:28:56;;;;;;;5.75;2.92;;;;;;;;;;4977124;28;20034;-56
2023/11/14 12:31:26;;;;;;;6.22;2.88;;;;;;;;;;4974332;28;20521;-57
2023/11/14 12:33:53;;;;;;;5.60;2.80;;;;;;;;;;4972805;28;20082;-57
2023/11/14 12:36:22;;;;;;;5.97;2.90;;;;;;;;;;4981727;28;20046;-56
2023/11/14 12:38:47;;;;;;;5.82;3.03;;;;;;;;;;4982472;28;20121;-56
2023/11/14 12:41:31;;;;;;;6.63;2.83;;;;;;;;;;4982027;28;20082;-56
2023/11/14 12:43:57;;;;;;;4.75;2.70;;;;;;;;;;4975614;28;20492;-57
2023/11/14 12:46:23;;;;;;;6.93;3.28;;;;;;;;;;4969463;28;20038;-57
2023/11/14 12:49:05;;;;;;;6.57;2.80;;;;;;;;;;4979059;28;20551;-58
2023/11/14 12:51:33;;;;;;;6.43;3.05;;;;;;;;;;4970764;28;20054;-56
2023/11/14 12:53:58;;;;;;;6.20;3.00;;;;;;;;;;4982572;28;20033;-57
2023/11/14 12:56:23;;;;;;;7.80;2.72;;;;;;;;;;4983469;28;20034;-58
2023/11/14 12:58:49;;;;;;;4.60;2.53;;;;;;;;;;4981029;28;20038;-56
2023/11/14 13:01:14;;;;;;;6.03;2.70;;;;;;;;;;4974517;28;20274;-56
2023/11/14 13:03:39;;;;;;;5.78;2.75;;;;;;;;;;4971499;28;20043;-57
2023/11/14 13:06:05;;;;;;;5.97;3.10;;;;;;;;;;4983155;28;20038;-56
2023/11/14 13:08:30;;;;;;;5.60;2.78;;;;;;;;;;4973516;28;20827;-54
2023/11/14 13:10:55;;;;;;;4.57;2.60;;;;;;;;;;4963692;28;20035;-57
2023/11/14 13:13:21;;;;;;;6.70;2.70;;;;;;;;;;4962266;28;20084;-56
2023/11/14 13:15:46;;;;;;;5.93;2.60;;;;;;;;;;4956120;28;20279;-57
2023/11/14 13:18:11;;;;;;;6.40;2.50;;;;;;;;;;4967502;28;20797;-57
2023/11/14 13:20:36;;;;;;;5.97;2.60;;;;;;;;;;4965339;28;20105;-57
2023/11/14 13:23:03;;;;;;;4.22;2.30;;;;;;;;;;4975128;28;20328;-57
2023/11/14 13:25:28;;;;;;;5.78;2.88;;;;;;;;;;4964313;28;20552;-58
2023/11/14 13:27:53;;;;;;;4.90;2.72;;;;;;;;;;4971126;28;20047;-56
2023/11/14 13:30:19;;;;;;;4.55;2.13;;;;;;;;;;4968937;28;20962;-57
2023/11/14 13:32:44;;;;;;;5.88;2.65;;;;;;;;;;4968097;28;20039;-56
2023/11/14 13:35:10;;;;;;;5.85;2.60;;;;;;;;;;4972340;28;20066;-57
2023/11/14 13:37:35;;;;;;;6.28;2.60;;;;;;;;;;4969441;28;20143;-57
2023/11/14 13:40:00;;;;;;;4.35;2.38;;;;;;;;;;4973671;28;20039;-56
2023/11/14 13:42:26;;;;;;;5.10;2.50;;;;;;;;;;4965394;28;20046;-56
2023/11/14 13:44:51;;;;;;;6.63;2.60;;;;;;;;;;4973348;28;20043;-57
2023/11/14 13:47:16;;;;;;;4.55;2.70;;;;;;;;;;4984890;28;20278;-56
2023/11/14 13:49:41;;;;;;;3.97;2.80;;;;;;;;;;4971178;28;20035;-56
2023/11/14 13:52:07;;;;;;;6.33;2.37;;;;;;;;;;4969507;28;20282;-56
2023/11/14 13:54:32;;;;;;;4.28;2.10;;;;;;;;;;4974196;28;20313;-56
2023/11/14 13:56:59;;;;;;;6.35;2.55;;;;;;;;;;4968654;28;20031;-56
2023/11/14 13:59:26;;;;;;;5.75;2.50;;;;;;;;;;4969412;28;20046;-56
2023/11/14 14:01:52;;;;;;;5.05;2.53;;;;;;;;;;4966971;28;20057;-55
2023/11/14 14:04:18;;;;;;;5.32;2.60;;;;;;;;;;4970351;28;20631;-56
2023/11/14 14:06:43;;;;;;;6.38;2.35;;;;;;;;;;4980229;28;20069;-58
2023/11/14 14:09:13;;;;;;;6.18;2.45;;;;;;;;;;4960088;28;20128;-56
2023/11/14 14:11:38;;;;;;;4.90;2.40;;;;;;;;;;4958634;28;20118;-56
2023/11/14 14:14:03;;;;;;;3.95;2.50;;;;;;;;;;4956387;28;20532;-57
2023/11/14 14:16:29;;;;;;;5.20;2.70;;;;;;;;;;4971396;28;20034;-56
2023/11/14 14:18:54;;;;;;;7.95;2.40;;;;;;;;;;4977439;28;20038;-56
2023/11/14 14:21:19;;;;;;;6.07;2.70;;;;;;;;;;4972205;28;20039;-55
2023/11/14 14:23:45;;;;;;;4.15;2.40;;;;;;;;;;4972108;28;20057;-56
2023/11/14 14:26:10;;;;;;;5.83;2.67;;;;;;;;;;4969380;28;20030;-56
2023/11/14 14:28:35;;;;;;;5.60;2.67;;;;;;;;;;4979956;28;20644;-56
2023/11/14 14:31:00;;;;;;;5.63;2.70;;;;;;;;;;4977591;28;20285;-56
2023/11/14 14:33:26;;;;;;;4.88;2.55;;;;;;;;;;4979168;28;20042;-56
2023/11/14 14:35:52;;;;;;;5.13;2.67;;;;;;;;;;4980533;28;20030;-55
2023/11/14 14:38:20;;;;;;;6.00;2.60;;;;;;;;;;4967156;28;20596;-56